Lisse, Netherlands
Current Conditions -  °F | °C
As of 1:55 AM on Wednesday 22 Oct 2014 (Local Time) from EHAM Reporting Station
Rain Showers Rain Showers  
Wind Chill: 50°   Ceiling: Unl
Heat Index: 50°   Visibility: 6mi
Dew Point: 39°   Wind: 28mph
Humidity: 66%   Direction: 300°WNW
Pressure: 29.83"   Gusts: 39mph
Location:  52.26°N, 4.56°E
Report Text: EHAM 212355Z 30024G34KT 9999 -SHRA FEW025CB 10/04 Q1010 TEMPO5000 SHRA
Loading
Personal Weather Stations






























Interactive Weather Map New forecast layout! Learn more

10-Day Weather Forecast

Advertisements
Track Severe Weather on mobile